createdAt,value
2019-02-18T00:01:43.946Z,9.37
2019-02-18T00:04:12.751Z,10.50
2019-02-18T00:06:41.524Z,9.50
2019-02-18T00:09:10.895Z,10.23
2019-02-18T00:11:40.234Z,10.07
2019-02-18T00:14:09.026Z,9.13
2019-02-18T00:16:37.814Z,9.63
2019-02-18T00:19:07.415Z,9.73
2019-02-18T00:21:36.605Z,10.10
2019-02-18T00:24:05.540Z,9.93
2019-02-18T00:26:34.367Z,11.43
2019-02-18T00:29:03.195Z,10.47
2019-02-18T00:31:31.985Z,11.37
2019-02-18T00:34:00.858Z,11.13
2019-02-18T00:36:30.222Z,10.70
2019-02-18T00:38:59.396Z,10.20
2019-02-18T00:41:30.073Z,9.93
2019-02-18T00:43:58.927Z,10.13
2019-02-18T00:46:27.755Z,9.77
2019-02-18T00:48:56.552Z,9.23
2019-02-18T00:51:26.519Z,12.13
2019-02-18T00:53:56.525Z,9.63
2019-02-18T00:56:25.325Z,9.83
2019-02-18T00:58:54.623Z,9.87
2019-02-18T01:01:23.433Z,9.87
2019-02-18T01:03:53.238Z,9.20
2019-02-18T01:06:22.040Z,9.47
2019-02-18T01:08:50.855Z,10.47
2019-02-18T01:11:23.175Z,9.87
2019-02-18T01:13:52.001Z,8.77
2019-02-18T01:16:21.792Z,8.20
2019-02-18T01:18:50.584Z,9.23
2019-02-18T01:21:19.985Z,9.90
2019-02-18T01:23:48.768Z,10.80
2019-02-18T01:26:17.548Z,11.77
2019-02-18T01:28:46.353Z,10.17
2019-02-18T01:31:15.334Z,11.10
2019-02-18T01:33:44.133Z,10.83
2019-02-18T01:36:14.235Z,11.50
2019-02-18T01:38:43.120Z,9.93
2019-02-18T01:41:11.899Z,10.23
2019-02-18T01:43:40.742Z,11.93
2019-02-18T01:46:09.638Z,8.67
2019-02-18T01:48:39.587Z,11.23
2019-02-18T01:51:08.390Z,11.77
2019-02-18T01:53:37.270Z,9.43
2019-02-18T01:56:06.075Z,12.50
2019-02-18T01:58:34.863Z,11.50
2019-02-18T02:01:03.748Z,11.30
2019-02-18T02:03:32.617Z,16.37
2019-02-18T02:06:02.349Z,13.50
2019-02-18T02:08:31.130Z,12.27
2019-02-18T02:10:59.974Z,12.03
2019-02-18T02:13:30.703Z,10.83
2019-02-18T02:16:00.699Z,13.13
2019-02-18T02:18:29.498Z,13.63
2019-02-18T02:20:58.969Z,13.40
2019-02-18T02:23:28.218Z,12.23
2019-02-18T02:25:58.103Z,12.30
2019-02-18T02:28:26.942Z,13.70
2019-02-18T02:30:56.907Z,13.93
2019-02-18T02:33:26.367Z,12.87
2019-02-18T02:35:55.136Z,11.33
2019-02-18T02:38:24.607Z,12.13
2019-02-18T02:40:53.475Z,12.50
2019-02-18T02:43:22.548Z,13.67
2019-02-18T02:45:51.402Z,15.37
2019-02-18T02:48:20.183Z,11.60
2019-02-18T02:50:49.029Z,12.90
2019-02-18T02:53:17.839Z,11.73
2019-02-18T02:55:46.687Z,11.70
2019-02-18T02:58:15.524Z,14.53
2019-02-18T03:00:44.860Z,11.97
2019-02-18T03:03:13.665Z,13.03
2019-02-18T03:05:42.564Z,12.60
2019-02-18T03:08:20.041Z,14.13
2019-02-18T03:10:41.385Z,13.30
2019-02-18T03:13:10.942Z,11.43
2019-02-18T03:15:39.768Z,14.03
2019-02-18T03:18:10.127Z,13.03
2019-02-18T03:20:39.931Z,15.37
2019-02-18T03:23:08.807Z,12.53
2019-02-18T03:25:37.616Z,11.60
2019-02-18T03:28:12.048Z,11.20
2019-02-18T03:30:50.109Z,11.47
2019-02-18T03:33:22.970Z,11.17
2019-02-18T03:35:52.433Z,11.10
2019-02-18T03:38:31.194Z,11.80
2019-02-18T03:41:02.810Z,12.40
2019-02-18T03:43:22.138Z,12.27
2019-02-18T03:45:51.068Z,11.53
2019-02-18T03:48:19.884Z,13.60
2019-02-18T03:50:48.704Z,12.83
2019-02-18T03:53:17.825Z,13.17
2019-02-18T03:55:47.105Z,12.83
2019-02-18T03:58:16.740Z,10.93
2019-02-18T04:00:45.621Z,12.33
2019-02-18T04:03:15.939Z,11.07
2019-02-18T04:05:45.624Z,12.07
2019-02-18T04:08:14.417Z,11.37
2019-02-18T04:10:44.867Z,12.60
2019-02-18T04:13:14.352Z,12.43
2019-02-18T04:15:43.172Z,14.80
2019-02-18T04:18:13.629Z,11.97
2019-02-18T04:20:42.444Z,11.77
2019-02-18T04:23:11.235Z,13.80
2019-02-18T04:25:41.075Z,12.90
2019-02-18T04:28:09.978Z,13.33
2019-02-18T04:30:38.751Z,13.80
2019-02-18T04:33:07.564Z,13.33
2019-02-18T04:35:37.329Z,14.10
2019-02-18T04:38:06.262Z,14.33
2019-02-18T04:40:35.077Z,13.17
2019-02-18T04:43:04.956Z,13.07
2019-02-18T04:45:33.765Z,13.87
2019-02-18T04:48:02.736Z,14.10
2019-02-18T04:50:32.316Z,12.73
2019-02-18T04:53:03.445Z,12.43
2019-02-18T04:55:32.411Z,12.43
2019-02-18T04:58:01.167Z,13.03
2019-02-18T05:00:31.174Z,13.57
2019-02-18T05:03:01.897Z,13.17
2019-02-18T05:05:31.335Z,15.43
2019-02-18T05:08:00.730Z,13.70
2019-02-18T05:10:30.106Z,12.53
2019-02-18T05:12:58.916Z,13.30
2019-02-18T05:15:28.700Z,13.00
2019-02-18T05:17:58.116Z,13.33
2019-02-18T05:20:28.634Z,14.20
2019-02-18T05:22:57.527Z,14.27
2019-02-18T05:25:27.522Z,15.27
2019-02-18T05:27:56.341Z,13.13
2019-02-18T05:30:25.950Z,16.03
2019-02-18T05:32:55.587Z,12.23
2019-02-18T05:35:24.358Z,12.30
2019-02-18T05:37:54.028Z,14.30
2019-02-18T05:40:22.857Z,13.37
2019-02-18T05:42:51.728Z,14.57
2019-02-18T05:45:20.520Z,15.43
2019-02-18T05:47:49.967Z,12.47
2019-02-18T05:50:19.626Z,12.37
2019-02-18T05:52:48.409Z,12.53
2019-02-18T05:55:17.947Z,13.80
2019-02-18T05:57:47.884Z,14.17
2019-02-18T06:00:16.856Z,14.57
2019-02-18T06:02:45.654Z,13.03
2019-02-18T06:05:15.301Z,15.37
2019-02-18T06:07:44.704Z,13.23
2019-02-18T06:10:14.231Z,14.97
2019-02-18T06:12:42.969Z,12.40
2019-02-18T06:15:12.571Z,13.53
2019-02-18T06:17:42.216Z,30.70
2019-02-18T06:20:11.030Z,19.27
2019-02-18T06:22:39.856Z,17.40
2019-02-18T06:25:08.668Z,19.23
2019-02-18T06:27:37.691Z,19.17
2019-02-18T06:30:08.170Z,18.03
2019-02-18T06:32:36.960Z,18.00
2019-02-18T06:35:05.910Z,19.33
2019-02-18T06:37:34.705Z,14.77
2019-02-18T06:40:03.520Z,15.70
2019-02-18T06:42:32.383Z,16.30
2019-02-18T06:45:12.047Z,15.80
2019-02-18T06:47:39.483Z,16.53
2019-02-18T06:50:08.915Z,16.07
2019-02-18T06:52:38.005Z,15.70
2019-02-18T06:55:07.871Z,14.77
2019-02-18T06:57:43.833Z,17.47
2019-02-18T07:00:22.617Z,14.07
2019-02-18T07:02:56.190Z,15.63
2019-02-18T07:05:36.185Z,15.60
2019-02-18T07:09:07.967Z,15.97
2019-02-18T07:11:41.523Z,15.90
2019-02-18T07:14:11.175Z,15.17
2019-02-18T07:16:40.326Z,14.73
2019-02-18T07:19:09.144Z,16.83
2019-02-18T07:21:38.587Z,20.40
2019-02-18T07:24:07.441Z,21.97
2019-02-18T07:26:36.402Z,21.87
2019-02-18T07:29:05.838Z,19.10
2019-02-18T07:31:34.952Z,29.03
2019-02-18T07:34:06.098Z,22.80
2019-02-18T07:36:35.227Z,25.57
2019-02-18T07:39:04.335Z,16.60
2019-02-18T07:41:34.810Z,19.57
2019-02-18T07:44:05.904Z,18.17
2019-02-18T07:46:36.655Z,16.63
2019-02-18T07:49:05.478Z,15.87
2019-02-18T07:51:34.256Z,15.70
2019-02-18T07:54:03.827Z,14.37
2019-02-18T07:56:33.751Z,15.63
2019-02-18T07:59:02.557Z,16.10
2019-02-18T08:01:32.035Z,13.83
2019-02-18T08:04:00.874Z,15.77
2019-02-18T08:06:30.957Z,15.37
2019-02-18T08:09:00.459Z,14.80
2019-02-18T08:11:29.399Z,16.20
2019-02-18T08:13:58.178Z,16.17
2019-02-18T08:16:26.979Z,15.03
2019-02-18T08:18:55.852Z,15.40
2019-02-18T08:21:25.734Z,14.53
2019-02-18T08:23:59.994Z,15.53
2019-02-18T08:26:24.178Z,15.07
2019-02-18T08:28:52.984Z,13.70
2019-02-18T08:31:22.056Z,14.40
2019-02-18T08:33:50.848Z,13.50
2019-02-18T08:36:19.654Z,14.10
2019-02-18T08:38:49.087Z,14.93
2019-02-18T08:41:18.606Z,13.40
2019-02-18T08:43:48.440Z,26.20
2019-02-18T08:46:17.231Z,15.90
2019-02-18T08:48:46.038Z,14.93
2019-02-18T08:51:15.520Z,13.17
2019-02-18T08:53:44.328Z,12.57
2019-02-18T08:56:13.734Z,12.80
2019-02-18T08:58:42.811Z,14.17
2019-02-18T09:01:11.703Z,13.00
2019-02-18T09:03:40.552Z,12.90
2019-02-18T09:06:09.397Z,12.47
2019-02-18T09:08:38.201Z,12.33
2019-02-18T09:11:07.023Z,11.87
2019-02-18T09:13:35.812Z,11.23
2019-02-18T09:16:04.603Z,11.03
2019-02-18T09:18:33.494Z,11.97
2019-02-18T09:21:03.515Z,11.40
2019-02-18T09:23:40.053Z,11.23
2019-02-18T09:26:09.415Z,11.50
2019-02-18T09:28:38.976Z,12.00
2019-02-18T09:31:07.748Z,12.30
2019-02-18T09:33:36.912Z,11.77
2019-02-18T09:36:05.938Z,10.70
2019-02-18T09:38:35.571Z,10.67
2019-02-18T09:41:04.652Z,10.73
2019-02-18T09:43:33.471Z,10.40
2019-02-18T09:46:03.236Z,10.30
2019-02-18T09:48:32.758Z,11.00
2019-02-18T09:51:02.175Z,10.17
2019-02-18T09:53:30.982Z,10.90
2019-02-18T09:55:59.816Z,10.50
2019-02-18T09:58:28.625Z,10.40
2019-02-18T10:00:57.637Z,9.73
2019-02-18T10:03:31.945Z,10.77
2019-02-18T10:05:55.844Z,10.40
2019-02-18T10:08:24.662Z,10.33
2019-02-18T10:10:56.130Z,11.30
2019-02-18T10:13:22.364Z,10.33
2019-02-18T10:15:51.275Z,10.10
2019-02-18T10:18:20.085Z,10.43
2019-02-18T10:20:49.247Z,10.00
2019-02-18T10:23:18.043Z,9.40
2019-02-18T10:25:47.699Z,10.63
2019-02-18T10:28:18.294Z,12.30
2019-02-18T10:30:47.978Z,12.93
2019-02-18T10:33:16.857Z,11.27
2019-02-18T10:35:46.167Z,11.10
2019-02-18T10:38:15.127Z,11.43
2019-02-18T10:40:45.336Z,11.50
2019-02-18T10:43:14.295Z,10.93
2019-02-18T10:45:43.617Z,11.07
2019-02-18T10:48:12.450Z,12.77
2019-02-18T10:50:42.974Z,11.73
2019-02-18T10:53:12.234Z,11.07
2019-02-18T10:55:41.010Z,11.20
2019-02-18T10:58:10.469Z,10.67
2019-02-18T11:00:39.278Z,11.07
2019-02-18T11:03:08.777Z,11.50
2019-02-18T11:05:37.659Z,11.67
2019-02-18T11:08:06.867Z,10.47
2019-02-18T11:10:37.278Z,10.90
2019-02-18T11:13:06.123Z,11.10
2019-02-18T11:15:34.931Z,10.93
2019-02-18T11:18:03.751Z,10.73
2019-02-18T11:20:32.787Z,11.50
2019-02-18T11:23:01.671Z,11.53
2019-02-18T11:25:30.463Z,11.67
2019-02-18T11:27:59.809Z,11.60
2019-02-18T11:30:28.603Z,12.60
2019-02-18T11:32:57.519Z,11.40
2019-02-18T11:35:26.346Z,10.37
2019-02-18T11:37:56.068Z,9.90
2019-02-18T11:40:25.470Z,10.17
2019-02-18T11:42:54.315Z,10.50
2019-02-18T11:45:23.106Z,11.10
2019-02-18T11:47:52.759Z,10.17
2019-02-18T11:50:21.975Z,10.20
2019-02-18T11:52:51.310Z,11.13
2019-02-18T11:55:20.125Z,11.00
2019-02-18T11:57:48.954Z,10.20
2019-02-18T12:00:17.739Z,11.20
2019-02-18T12:02:46.559Z,10.40
2019-02-18T12:05:15.379Z,10.23
2019-02-18T12:07:44.167Z,9.57
2019-02-18T12:10:13.009Z,10.27
2019-02-18T12:12:41.817Z,11.13
2019-02-18T12:15:10.960Z,11.33
2019-02-18T12:17:40.480Z,11.43
2019-02-18T12:20:11.171Z,9.60
2019-02-18T12:22:40.721Z,9.20
2019-02-18T12:25:09.570Z,10.17
2019-02-18T12:27:38.376Z,10.40
2019-02-18T12:30:11.850Z,10.80
2019-02-18T12:32:40.661Z,10.10
2019-02-18T12:35:09.815Z,10.20
2019-02-18T12:37:42.342Z,10.57
2019-02-18T12:40:11.150Z,9.57
2019-02-18T12:43:06.888Z,10.40
2019-02-18T12:45:35.743Z,10.10
2019-02-18T12:51:36.974Z,10.57
2019-02-18T12:54:05.952Z,10.47
2019-02-18T12:56:36.068Z,10.60
2019-02-18T12:59:05.087Z,10.90
2019-02-18T13:01:33.959Z,11.60
2019-02-18T13:04:02.767Z,11.87
2019-02-18T13:06:31.610Z,11.53
2019-02-18T13:09:00.604Z,11.50
2019-02-18T13:11:29.471Z,12.33
2019-02-18T13:13:59.747Z,13.97
2019-02-18T13:16:28.552Z,13.83
2019-02-18T13:18:57.364Z,12.43
2019-02-18T13:21:26.172Z,11.57
2019-02-18T13:23:55.040Z,12.10
2019-02-18T13:26:23.856Z,11.77
2019-02-18T13:28:52.723Z,11.90
2019-02-18T13:31:25.243Z,11.57
2019-02-18T13:33:54.695Z,11.47
2019-02-18T13:36:24.329Z,12.87
2019-02-18T13:38:55.045Z,11.47
2019-02-18T13:41:26.119Z,12.30
2019-02-18T13:43:54.975Z,12.90
2019-02-18T13:46:23.799Z,12.17
2019-02-18T13:48:56.907Z,12.83
2019-02-18T13:51:25.693Z,11.67
2019-02-18T13:53:54.653Z,13.70
2019-02-18T13:56:24.089Z,14.23
2019-02-18T13:58:54.623Z,14.73
2019-02-18T14:01:23.464Z,13.83
2019-02-18T14:03:52.919Z,13.20
2019-02-18T14:06:22.187Z,12.43
2019-02-18T14:08:50.988Z,13.43
2019-02-18T14:11:19.832Z,13.33
2019-02-18T14:13:49.939Z,13.10
2019-02-18T14:16:19.957Z,13.20
2019-02-18T14:18:48.800Z,13.83
2019-02-18T14:21:17.658Z,13.90
2019-02-18T14:23:53.138Z,13.77
2019-02-18T14:26:23.096Z,13.97
2019-02-18T14:28:54.935Z,14.63
2019-02-18T14:31:23.782Z,14.33
2019-02-18T14:33:57.414Z,14.73
2019-02-18T14:36:27.710Z,15.17
2019-02-18T14:38:56.607Z,13.40
2019-02-18T14:41:26.109Z,15.13
2019-02-18T14:43:56.203Z,14.53
2019-02-18T14:46:26.106Z,14.73
2019-02-18T14:48:55.828Z,14.70
2019-02-18T14:51:26.789Z,14.30
2019-02-18T14:53:55.600Z,15.70
2019-02-18T14:56:25.054Z,17.53
2019-02-18T14:58:55.836Z,15.60
2019-02-18T15:01:25.786Z,13.63
2019-02-18T15:03:55.355Z,14.13
2019-02-18T15:06:25.375Z,14.17
2019-02-18T15:08:54.539Z,13.67
2019-02-18T15:11:24.643Z,14.17
2019-02-18T15:13:54.652Z,14.67
2019-02-18T15:16:23.599Z,14.13
2019-02-18T15:18:53.352Z,14.80
2019-02-18T15:21:22.184Z,15.13
2019-02-18T15:23:51.625Z,14.73
2019-02-18T15:26:20.442Z,14.40
2019-02-18T15:28:51.695Z,16.37
2019-02-18T15:31:20.504Z,13.63
2019-02-18T15:33:50.461Z,16.10
2019-02-18T15:36:20.066Z,16.03
2019-02-18T15:38:49.466Z,16.30
2019-02-18T15:41:18.263Z,15.30
2019-02-18T15:43:47.722Z,15.23
2019-02-18T15:46:16.576Z,15.43
2019-02-18T15:48:45.398Z,16.73
2019-02-18T15:51:14.309Z,16.33
2019-02-18T15:53:44.799Z,15.97
2019-02-18T15:56:14.856Z,16.70
2019-02-18T15:58:43.635Z,16.57
2019-02-18T16:01:12.505Z,14.70
2019-02-18T16:03:42.011Z,15.30
2019-02-18T16:06:12.737Z,16.97
2019-02-18T16:08:39.802Z,16.47
2019-02-18T16:11:09.694Z,16.10
2019-02-18T16:13:39.972Z,15.70
2019-02-18T16:16:08.781Z,16.30
2019-02-18T16:18:37.636Z,16.63
2019-02-18T16:21:08.331Z,16.00
2019-02-18T16:23:37.120Z,16.67
2019-02-18T16:26:06.011Z,16.27
2019-02-18T16:28:34.811Z,15.30
2019-02-18T16:31:04.326Z,17.13
2019-02-18T16:33:33.787Z,16.20
2019-02-18T16:36:03.286Z,15.10
2019-02-18T16:38:33.099Z,16.27
2019-02-18T16:41:01.991Z,16.27
2019-02-18T16:43:31.206Z,15.57
2019-02-18T16:46:01.142Z,16.37
2019-02-18T16:48:31.143Z,15.17
2019-02-18T16:50:59.979Z,16.43
2019-02-18T16:53:28.816Z,15.83
2019-02-18T16:56:01.951Z,15.83
2019-02-18T16:58:30.799Z,15.93
2019-02-18T17:00:59.665Z,16.53
2019-02-18T17:03:28.504Z,16.77
2019-02-18T17:05:57.481Z,17.37
2019-02-18T17:08:26.298Z,19.43
2019-02-18T17:10:55.677Z,16.87
2019-02-18T17:13:26.291Z,17.70
2019-02-18T17:15:55.204Z,17.07
2019-02-18T17:18:27.303Z,17.47
2019-02-18T17:20:57.077Z,16.37
2019-02-18T17:23:26.066Z,17.10
2019-02-18T17:25:55.769Z,16.53
2019-02-18T17:28:39.235Z,15.80
2019-02-18T17:31:08.076Z,17.27
2019-02-18T17:33:36.914Z,15.30
2019-02-18T17:36:07.369Z,16.37
2019-02-18T17:38:36.449Z,19.80
2019-02-18T17:41:07.526Z,18.40
2019-02-18T17:43:37.866Z,16.73
2019-02-18T17:46:06.707Z,18.27
2019-02-18T17:48:35.545Z,17.27
2019-02-18T17:51:04.445Z,18.17
2019-02-18T17:53:33.297Z,19.33
2019-02-18T17:56:02.150Z,17.70
2019-02-18T17:58:30.943Z,25.87
2019-02-18T18:00:59.878Z,65.43
2019-02-18T18:03:28.853Z,36.23
2019-02-18T18:05:58.296Z,53.10
2019-02-18T18:08:27.932Z,33.97
2019-02-18T18:10:56.819Z,23.50
2019-02-18T18:13:26.673Z,24.90
2019-02-18T18:15:55.493Z,24.67
2019-02-18T18:18:25.051Z,27.30
2019-02-18T18:20:53.834Z,22.10
2019-02-18T18:23:23.180Z,21.37
2019-02-18T18:25:52.830Z,20.60
2019-02-18T18:28:21.634Z,20.40
2019-02-18T18:30:50.434Z,19.90
2019-02-18T18:33:20.290Z,21.60
2019-02-18T18:35:49.091Z,20.03
2019-02-18T18:38:17.887Z,19.20
2019-02-18T18:40:46.741Z,18.67
2019-02-18T18:43:16.167Z,20.57
2019-02-18T18:45:45.063Z,20.53
2019-02-18T18:48:13.947Z,19.33
2019-02-18T18:50:42.763Z,21.10
2019-02-18T18:53:11.571Z,22.30
2019-02-18T18:55:41.622Z,27.23
2019-02-18T18:58:10.533Z,25.73
2019-02-18T19:00:42.701Z,25.57
2019-02-18T19:03:12.767Z,24.63
2019-02-18T19:05:44.065Z,23.63
2019-02-18T19:08:16.430Z,21.63
2019-02-18T19:10:45.332Z,20.70
2019-02-18T19:13:14.197Z,20.27
2019-02-18T19:15:49.490Z,21.10
2019-02-18T19:18:12.929Z,20.83
2019-02-18T19:20:41.923Z,22.23
2019-02-18T19:23:11.376Z,21.57
2019-02-18T19:25:40.244Z,21.67
2019-02-18T19:28:09.043Z,21.00
2019-02-18T19:30:37.998Z,23.00
2019-02-18T19:33:06.851Z,19.97
2019-02-18T19:35:36.079Z,21.03
2019-02-18T19:38:05.069Z,19.53
2019-02-18T19:40:34.032Z,19.70
2019-02-18T19:43:03.363Z,20.03
2019-02-18T19:45:32.834Z,20.10
2019-02-18T19:48:02.395Z,20.60
2019-02-18T19:50:31.219Z,22.00
2019-02-18T19:53:00.082Z,21.40
2019-02-18T19:55:28.876Z,20.53
2019-02-18T19:57:57.975Z,20.77
2019-02-18T20:00:27.471Z,21.10
2019-02-18T20:02:56.290Z,21.27
2019-02-18T20:05:27.059Z,21.43
2019-02-18T20:07:57.139Z,22.80
2019-02-18T20:10:25.966Z,22.87
2019-02-18T20:12:54.832Z,22.07
2019-02-18T20:15:24.056Z,23.23
2019-02-18T20:17:52.927Z,23.60
2019-02-18T20:20:22.222Z,21.83
2019-02-18T20:22:51.127Z,23.10
2019-02-18T20:25:19.963Z,22.10
2019-02-18T20:27:48.800Z,23.37
2019-02-18T20:30:17.715Z,23.07
2019-02-18T20:32:47.144Z,21.23
2019-02-18T20:35:16.066Z,22.37
2019-02-18T20:37:45.917Z,24.30
2019-02-18T20:40:14.700Z,21.53
2019-02-18T20:42:45.136Z,21.50
2019-02-18T20:45:14.238Z,25.13
2019-02-18T20:47:43.742Z,22.63
2019-02-18T20:50:12.557Z,24.00
2019-02-18T20:52:41.688Z,23.87
2019-02-18T20:55:11.614Z,27.40
2019-02-18T20:57:41.118Z,26.87
2019-02-18T21:00:14.493Z,25.57
2019-02-18T21:02:43.302Z,25.23
2019-02-18T21:05:12.198Z,25.57
2019-02-18T21:07:40.982Z,24.00
2019-02-18T21:10:11.417Z,25.20
2019-02-18T21:12:40.230Z,25.30
2019-02-18T21:15:09.286Z,25.93
2019-02-18T21:17:38.148Z,26.60
2019-02-18T21:20:08.675Z,24.57
2019-02-18T21:22:38.095Z,25.40
2019-02-18T21:25:07.591Z,26.23
2019-02-18T21:27:36.446Z,25.87
2019-02-18T21:30:07.379Z,25.43
2019-02-18T21:32:36.174Z,23.23
2019-02-18T21:35:05.144Z,24.37
2019-02-18T21:37:34.032Z,23.33
2019-02-18T21:40:04.689Z,23.13
2019-02-18T21:42:34.060Z,23.63
2019-02-18T21:45:03.512Z,23.10
2019-02-18T21:47:33.057Z,23.87
2019-02-18T21:50:01.857Z,25.37
2019-02-18T21:52:31.799Z,23.17
2019-02-18T21:55:01.889Z,26.07
2019-02-18T21:57:31.988Z,24.03
2019-02-18T22:00:00.829Z,22.40
2019-02-18T22:02:30.176Z,22.57
2019-02-18T22:05:01.313Z,23.63
2019-02-18T22:07:30.106Z,22.93
2019-02-18T22:09:59.344Z,24.50
2019-02-18T22:12:28.173Z,25.03
2019-02-18T22:14:57.035Z,24.93
2019-02-18T22:17:26.272Z,23.27
2019-02-18T22:19:55.122Z,23.13
2019-02-18T22:22:24.891Z,24.67
2019-02-18T22:24:53.692Z,24.30
2019-02-18T22:27:23.238Z,24.33
2019-02-18T22:29:52.051Z,26.23
2019-02-18T22:32:27.923Z,26.20
2019-02-18T22:34:56.952Z,24.93
2019-02-18T22:37:25.978Z,26.30
2019-02-18T22:39:54.775Z,25.23
2019-02-18T22:42:24.722Z,25.07
2019-02-18T22:44:53.836Z,24.33
2019-02-18T22:47:23.333Z,22.60
2019-02-18T22:49:52.213Z,31.63
2019-02-18T22:52:22.603Z,29.77
2019-02-18T22:54:51.422Z,26.63
2019-02-18T22:57:20.933Z,25.97
2019-02-18T22:59:50.579Z,23.73
2019-02-18T23:02:19.971Z,25.90
2019-02-18T23:04:49.676Z,25.70
2019-02-18T23:07:20.170Z,25.07
2019-02-18T23:09:49.072Z,24.33
2019-02-18T23:12:18.356Z,25.07
2019-02-18T23:14:50.509Z,23.30
2019-02-18T23:17:16.685Z,24.20
2019-02-18T23:19:45.533Z,23.83
2019-02-18T23:22:14.459Z,22.37
2019-02-18T23:24:43.431Z,24.07
2019-02-18T23:27:12.242Z,23.80
2019-02-18T23:29:41.162Z,23.07
2019-02-18T23:32:10.033Z,21.63
2019-02-18T23:34:38.816Z,22.03
2019-02-18T23:37:08.473Z,23.00
2019-02-18T23:39:37.955Z,24.00
2019-02-18T23:42:08.566Z,23.63
2019-02-18T23:44:38.179Z,23.17
2019-02-18T23:47:07.643Z,22.73
2019-02-18T23:49:36.451Z,24.33
2019-02-18T23:52:05.247Z,22.87
2019-02-18T23:54:35.597Z,24.93
2019-02-18T23:57:04.992Z,25.40
2019-02-18T23:59:33.875Z,25.97
